sensor_id;sensor_type;location;lat;lon;timestamp;P1;durP1;ratioP1;P2;durP2;ratioP2
48052;SDS011;33824;51.600;5.718;2023-04-01T00:00:44;6.75;;;1.08;;
48052;SDS011;33824;51.600;5.718;2023-04-01T00:03:14;6.43;;;0.80;;
48052;SDS011;33824;51.600;5.718;2023-04-01T00:05:40;4.13;;;0.75;;
48052;SDS011;33824;51.600;5.718;2023-04-01T00:08:05;6.60;;;1.17;;
48052;SDS011;33824;51.600;5.718;2023-04-01T00:10:31;3.33;;;1.00;;
48052;SDS011;33824;51.600;5.718;2023-04-01T00:12:56;2.65;;;1.00;;
48052;SDS011;33824;51.600;5.718;2023-04-01T00:15:22;4.97;;;0.80;;
48052;SDS011;33824;51.600;5.718;2023-04-01T00:17:48;5.40;;;1.13;;
48052;SDS011;33824;51.600;5.718;2023-04-01T00:20:13;4.68;;;1.08;;
48052;SDS011;33824;51.600;5.718;2023-04-01T00:22:39;3.45;;;0.95;;
48052;SDS011;33824;51.600;5.718;2023-04-01T00:25:06;2.83;;;0.77;;
48052;SDS011;33824;51.600;5.718;2023-04-01T00:27:53;2.97;;;0.70;;
48052;SDS011;33824;51.600;5.718;2023-04-01T00:30:21;4.68;;;0.95;;
48052;SDS011;33824;51.600;5.718;2023-04-01T00:32:50;2.85;;;0.73;;
48052;SDS011;33824;51.600;5.718;2023-04-01T00:35:17;2.17;;;0.70;;
48052;SDS011;33824;51.600;5.718;2023-04-01T00:37:43;4.53;;;1.08;;
48052;SDS011;33824;51.600;5.718;2023-04-01T00:40:19;3.28;;;0.68;;
48052;SDS011;33824;51.600;5.718;2023-04-01T00:42:57;2.13;;;0.70;;
48052;SDS011;33824;51.600;5.718;2023-04-01T00:45:28;5.07;;;1.48;;
48052;SDS011;33824;51.600;5.718;2023-04-01T00:47:56;2.58;;;1.10;;
48052;SDS011;33824;51.600;5.718;2023-04-01T00:50:26;3.67;;;0.70;;
48052;SDS011;33824;51.600;5.718;2023-04-01T00:52:53;2.47;;;0.90;;
48052;SDS011;33824;51.600;5.718;2023-04-01T00:55:19;8.25;;;1.02;;
48052;SDS011;33824;51.600;5.718;2023-04-01T00:57:47;2.38;;;0.68;;
48052;SDS011;33824;51.600;5.718;2023-04-01T01:00:15;4.00;;;0.80;;
48052;SDS011;33824;51.600;5.718;2023-04-01T01:02:41;3.90;;;0.90;;
48052;SDS011;33824;51.600;5.718;2023-04-01T01:05:13;3.55;;;0.90;;
48052;SDS011;33824;51.600;5.718;2023-04-01T01:07:45;3.72;;;0.85;;
48052;SDS011;33824;51.600;5.718;2023-04-01T01:10:53;3.60;;;0.90;;
48052;SDS011;33824;51.600;5.718;2023-04-01T01:15:53;3.83;;;1.00;;
48052;SDS011;33824;51.600;5.718;2023-04-01T01:23:53;8.35;;;1.50;;
48052;SDS011;33824;51.600;5.718;2023-04-01T01:27:18;4.03;;;1.00;;
48052;SDS011;33824;51.600;5.718;2023-04-01T01:35:31;2.33;;;0.98;;
48052;SDS011;33824;51.600;5.718;2023-04-01T01:38:03;4.57;;;1.38;;
48052;SDS011;33824;51.600;5.718;2023-04-01T01:40:35;1.23;;;0.70;;
48052;SDS011;33824;51.600;5.718;2023-04-01T01:43:04;1.73;;;1.00;;
48052;SDS011;33824;51.600;5.718;2023-04-01T01:45:33;1.33;;;1.02;;
48052;SDS011;33824;51.600;5.718;2023-04-01T01:48:01;3.80;;;1.13;;
48052;SDS011;33824;51.600;5.718;2023-04-01T01:50:29;2.25;;;1.10;;
48052;SDS011;33824;51.600;5.718;2023-04-01T01:53:09;3.25;;;1.33;;
48052;SDS011;33824;51.600;5.718;2023-04-01T01:55:37;3.67;;;1.10;;
48052;SDS011;33824;51.600;5.718;2023-04-01T02:01:01;2.63;;;1.20;;
48052;SDS011;33824;51.600;5.718;2023-04-01T02:03:31;3.08;;;1.25;;
48052;SDS011;33824;51.600;5.718;2023-04-01T02:06:01;4.10;;;1.65;;
48052;SDS011;33824;51.600;5.718;2023-04-01T02:08:45;1.55;;;1.30;;
48052;SDS011;33824;51.600;5.718;2023-04-01T02:11:17;2.60;;;1.85;;
48052;SDS011;33824;51.600;5.718;2023-04-01T02:16:40;3.78;;;2.50;;
48052;SDS011;33824;51.600;5.718;2023-04-01T02:19:31;3.28;;;2.25;;
48052;SDS011;33824;51.600;5.718;2023-04-01T02:22:01;5.07;;;2.30;;
48052;SDS011;33824;51.600;5.718;2023-04-01T02:24:30;4.80;;;3.38;;
48052;SDS011;33824;51.600;5.718;2023-04-01T02:26:58;2.90;;;2.30;;
48052;SDS011;33824;51.600;5.718;2023-04-01T02:29:26;4.97;;;2.50;;
48052;SDS011;33824;51.600;5.718;2023-04-01T02:31:52;3.38;;;2.20;;
48052;SDS011;33824;51.600;5.718;2023-04-01T02:34:19;3.25;;;2.20;;
48052;SDS011;33824;51.600;5.718;2023-04-01T02:36:47;4.88;;;2.42;;
48052;SDS011;33824;51.600;5.718;2023-04-01T02:39:14;2.55;;;2.20;;
48052;SDS011;33824;51.600;5.718;2023-04-01T02:41:41;5.47;;;2.30;;
48052;SDS011;33824;51.600;5.718;2023-04-01T02:44:08;4.50;;;2.47;;
48052;SDS011;33824;51.600;5.718;2023-04-01T02:46:35;3.03;;;2.47;;
48052;SDS011;33824;51.600;5.718;2023-04-01T02:49:01;3.15;;;2.47;;
48052;SDS011;33824;51.600;5.718;2023-04-01T02:51:26;3.25;;;2.90;;
48052;SDS011;33824;51.600;5.718;2023-04-01T02:53:52;5.13;;;2.97;;
48052;SDS011;33824;51.600;5.718;2023-04-01T02:56:17;3.80;;;3.00;;
48052;SDS011;33824;51.600;5.718;2023-04-01T02:58:45;6.18;;;3.72;;
48052;SDS011;33824;51.600;5.718;2023-04-01T03:03:43;4.63;;;3.05;;
48052;SDS011;33824;51.600;5.718;2023-04-01T03:06:10;6.50;;;4.38;;
48052;SDS011;33824;51.600;5.718;2023-04-01T03:08:37;5.90;;;3.67;;
48052;SDS011;33824;51.600;5.718;2023-04-01T03:11:03;6.22;;;4.05;;
48052;SDS011;33824;51.600;5.718;2023-04-01T03:13:29;5.43;;;4.28;;
48052;SDS011;33824;51.600;5.718;2023-04-01T03:15:54;6.00;;;3.85;;
48052;SDS011;33824;51.600;5.718;2023-04-01T03:18:20;7.00;;;4.60;;
48052;SDS011;33824;51.600;5.718;2023-04-01T03:20:46;6.93;;;5.05;;
48052;SDS011;33824;51.600;5.718;2023-04-01T03:23:11;7.43;;;4.78;;
48052;SDS011;33824;51.600;5.718;2023-04-01T03:25:37;6.68;;;4.82;;
48052;SDS011;33824;51.600;5.718;2023-04-01T03:28:02;7.20;;;4.65;;
48052;SDS011;33824;51.600;5.718;2023-04-01T03:30:28;7.22;;;4.55;;
48052;SDS011;33824;51.600;5.718;2023-04-01T03:32:56;7.32;;;5.38;;
48052;SDS011;33824;51.600;5.718;2023-04-01T03:35:23;9.73;;;4.72;;
48052;SDS011;33824;51.600;5.718;2023-04-01T03:37:50;9.40;;;5.40;;
48052;SDS011;33824;51.600;5.718;2023-04-01T03:40:16;10.60;;;5.50;;
48052;SDS011;33824;51.600;5.718;2023-04-01T03:42:42;9.52;;;5.57;;
48052;SDS011;33824;51.600;5.718;2023-04-01T03:45:08;8.70;;;5.07;;
48052;SDS011;33824;51.600;5.718;2023-04-01T03:47:34;8.27;;;5.28;;
48052;SDS011;33824;51.600;5.718;2023-04-01T03:50:00;7.25;;;5.50;;
48052;SDS011;33824;51.600;5.718;2023-04-01T03:52:26;6.25;;;4.57;;
48052;SDS011;33824;51.600;5.718;2023-04-01T03:54:51;10.98;;;5.65;;
48052;SDS011;33824;51.600;5.718;2023-04-01T03:57:17;6.95;;;4.88;;
48052;SDS011;33824;51.600;5.718;2023-04-01T03:59:42;7.47;;;4.72;;
48052;SDS011;33824;51.600;5.718;2023-04-01T04:02:08;4.93;;;3.70;;
48052;SDS011;33824;51.600;5.718;2023-04-01T04:04:35;6.50;;;4.38;;
48052;SDS011;33824;51.600;5.718;2023-04-01T04:07:01;9.38;;;5.05;;
48052;SDS011;33824;51.600;5.718;2023-04-01T04:09:26;5.45;;;3.55;;
48052;SDS011;33824;51.600;5.718;2023-04-01T04:11:52;5.50;;;3.83;;
48052;SDS011;33824;51.600;5.718;2023-04-01T04:14:18;6.63;;;4.22;;
48052;SDS011;33824;51.600;5.718;2023-04-01T04:16:43;6.47;;;4.57;;
48052;SDS011;33824;51.600;5.718;2023-04-01T04:19:09;7.32;;;4.00;;
48052;SDS011;33824;51.600;5.718;2023-04-01T04:21:35;7.10;;;3.83;;
48052;SDS011;33824;51.600;5.718;2023-04-01T04:24:00;6.00;;;4.28;;
48052;SDS011;33824;51.600;5.718;2023-04-01T04:26:26;6.05;;;3.83;;
48052;SDS011;33824;51.600;5.718;2023-04-01T04:28:53;6.13;;;3.65;;
48052;SDS011;33824;51.600;5.718;2023-04-01T04:31:20;7.72;;;4.18;;
48052;SDS011;33824;51.600;5.718;2023-04-01T04:33:47;4.90;;;3.22;;
48052;SDS011;33824;51.600;5.718;2023-04-01T04:36:13;4.88;;;3.05;;
48052;SDS011;33824;51.600;5.718;2023-04-01T04:38:39;6.10;;;3.63;;
48052;SDS011;33824;51.600;5.718;2023-04-01T04:41:15;4.88;;;3.65;;
48052;SDS011;33824;51.600;5.718;2023-04-01T04:43:48;3.90;;;3.00;;
48052;SDS011;33824;51.600;5.718;2023-04-01T04:46:16;4.28;;;3.53;;
48052;SDS011;33824;51.600;5.718;2023-04-01T04:48:41;4.45;;;2.88;;
48052;SDS011;33824;51.600;5.718;2023-04-01T04:51:11;4.10;;;2.80;;
48052;SDS011;33824;51.600;5.718;2023-04-01T04:53:39;3.00;;;2.58;;
48052;SDS011;33824;51.600;5.718;2023-04-01T04:56:05;3.20;;;2.35;;
48052;SDS011;33824;51.600;5.718;2023-04-01T04:58:31;5.18;;;3.08;;
48052;SDS011;33824;51.600;5.718;2023-04-01T05:00:56;3.63;;;2.72;;
48052;SDS011;33824;51.600;5.718;2023-04-01T05:03:22;2.65;;;2.03;;
48052;SDS011;33824;51.600;5.718;2023-04-01T05:05:49;3.72;;;2.40;;
48052;SDS011;33824;51.600;5.718;2023-04-01T05:08:16;2.88;;;2.35;;
48052;SDS011;33824;51.600;5.718;2023-04-01T05:10:42;3.50;;;2.75;;
48052;SDS011;33824;51.600;5.718;2023-04-01T05:13:07;4.47;;;2.67;;
48052;SDS011;33824;51.600;5.718;2023-04-01T05:15:33;3.67;;;2.67;;
48052;SDS011;33824;51.600;5.718;2023-04-01T05:17:59;2.80;;;2.40;;
48052;SDS011;33824;51.600;5.718;2023-04-01T05:20:24;3.85;;;2.70;;
48052;SDS011;33824;51.600;5.718;2023-04-01T05:22:55;3.80;;;2.70;;
48052;SDS011;33824;51.600;5.718;2023-04-01T05:25:21;3.03;;;2.40;;
48052;SDS011;33824;51.600;5.718;2023-04-01T05:27:47;2.83;;;2.33;;
48052;SDS011;33824;51.600;5.718;2023-04-01T05:30:12;3.70;;;2.67;;
48052;SDS011;33824;51.600;5.718;2023-04-01T05:32:38;3.38;;;2.60;;
48052;SDS011;33824;51.600;5.718;2023-04-01T05:35:03;3.55;;;2.92;;
48052;SDS011;33824;51.600;5.718;2023-04-01T05:37:29;6.30;;;3.17;;
48052;SDS011;33824;51.600;5.718;2023-04-01T05:39:55;3.70;;;2.95;;
48052;SDS011;33824;51.600;5.718;2023-04-01T05:42:21;3.85;;;2.72;;
48052;SDS011;33824;51.600;5.718;2023-04-01T05:44:46;4.95;;;3.53;;
48052;SDS011;33824;51.600;5.718;2023-04-01T05:47:12;4.47;;;3.13;;
48052;SDS011;33824;51.600;5.718;2023-04-01T05:49:37;4.40;;;3.05;;
48052;SDS011;33824;51.600;5.718;2023-04-01T05:52:03;3.92;;;3.10;;
48052;SDS011;33824;51.600;5.718;2023-04-01T05:54:28;3.25;;;2.78;;
48052;SDS011;33824;51.600;5.718;2023-04-01T05:56:55;3.35;;;2.80;;
48052;SDS011;33824;51.600;5.718;2023-04-01T05:59:20;5.15;;;3.08;;
48052;SDS011;33824;51.600;5.718;2023-04-01T06:01:46;3.83;;;2.78;;
48052;SDS011;33824;51.600;5.718;2023-04-01T06:04:14;4.78;;;3.58;;
48052;SDS011;33824;51.600;5.718;2023-04-01T06:06:42;4.47;;;3.38;;
48052;SDS011;33824;51.600;5.718;2023-04-01T06:09:15;4.22;;;3.40;;
48052;SDS011;33824;51.600;5.718;2023-04-01T06:17:40;5.32;;;3.50;;
48052;SDS011;33824;51.600;5.718;2023-04-01T06:20:39;6.50;;;3.95;;
48052;SDS011;33824;51.600;5.718;2023-04-01T06:23:23;5.95;;;4.72;;
48052;SDS011;33824;51.600;5.718;2023-04-01T06:28:46;9.45;;;5.47;;
48052;SDS011;33824;51.600;5.718;2023-04-01T06:34:16;10.20;;;6.22;;
48052;SDS011;33824;51.600;5.718;2023-04-01T06:36:55;8.30;;;6.10;;
48052;SDS011;33824;51.600;5.718;2023-04-01T06:42:12;8.07;;;5.13;;
48052;SDS011;33824;51.600;5.718;2023-04-01T06:55:47;8.82;;;5.28;;
48052;SDS011;33824;51.600;5.718;2023-04-01T06:58:21;10.23;;;5.93;;
48052;SDS011;33824;51.600;5.718;2023-04-01T07:00:53;6.87;;;5.27;;
48052;SDS011;33824;51.600;5.718;2023-04-01T07:06:30;9.98;;;5.53;;
48052;SDS011;33824;51.600;5.718;2023-04-01T07:09:01;9.43;;;5.65;;
48052;SDS011;33824;51.600;5.718;2023-04-01T07:11:32;8.20;;;5.78;;
48052;SDS011;33824;51.600;5.718;2023-04-01T07:16:46;11.18;;;5.45;;
48052;SDS011;33824;51.600;5.718;2023-04-01T07:22:09;14.25;;;5.90;;
48052;SDS011;33824;51.600;5.718;2023-04-01T07:24:45;11.57;;;6.15;;
48052;SDS011;33824;51.600;5.718;2023-04-01T07:27:12;8.35;;;5.55;;
48052;SDS011;33824;51.600;5.718;2023-04-01T07:29:38;10.48;;;6.38;;
48052;SDS011;33824;51.600;5.718;2023-04-01T07:34:56;10.90;;;6.47;;
48052;SDS011;33824;51.600;5.718;2023-04-01T07:37:46;12.45;;;6.88;;
48052;SDS011;33824;51.600;5.718;2023-04-01T07:40:39;12.95;;;6.07;;
48052;SDS011;33824;51.600;5.718;2023-04-01T07:46:12;10.88;;;6.35;;
48052;SDS011;33824;51.600;5.718;2023-04-01T07:48:57;16.13;;;7.47;;
48052;SDS011;33824;51.600;5.718;2023-04-01T07:51:43;13.32;;;6.53;;
48052;SDS011;33824;51.600;5.718;2023-04-01T08:05:41;12.38;;;6.00;;
48052;SDS011;33824;51.600;5.718;2023-04-01T08:08:40;14.63;;;7.28;;
48052;SDS011;33824;51.600;5.718;2023-04-01T08:11:32;11.63;;;5.40;;
48052;SDS011;33824;51.600;5.718;2023-04-01T08:14:19;12.30;;;5.57;;
48052;SDS011;33824;51.600;5.718;2023-04-01T08:25:46;14.18;;;5.80;;
48052;SDS011;33824;51.600;5.718;2023-04-01T08:31:28;12.57;;;5.57;;
48052;SDS011;33824;51.600;5.718;2023-04-01T08:33:58;12.60;;;5.95;;
48052;SDS011;33824;51.600;5.718;2023-04-01T08:36:31;13.35;;;5.35;;
48052;SDS011;33824;51.600;5.718;2023-04-01T08:39:04;14.13;;;5.78;;
48052;SDS011;33824;51.600;5.718;2023-04-01T08:41:37;12.10;;;5.82;;
48052;SDS011;33824;51.600;5.718;2023-04-01T08:44:32;9.50;;;5.22;;
48052;SDS011;33824;51.600;5.718;2023-04-01T08:47:07;12.70;;;6.60;;
48052;SDS011;33824;51.600;5.718;2023-04-01T08:58:16;12.80;;;5.57;;
48052;SDS011;33824;51.600;5.718;2023-04-01T09:20:30;13.18;;;6.82;;
48052;SDS011;33824;51.600;5.718;2023-04-01T09:32:27;22.00;;;7.32;;
48052;SDS011;33824;51.600;5.718;2023-04-01T09:34:57;14.40;;;6.82;;
48052;SDS011;33824;51.600;5.718;2023-04-01T09:37:51;13.25;;;6.85;;
48052;SDS011;33824;51.600;5.718;2023-04-01T09:40:14;14.00;;;5.82;;
48052;SDS011;33824;51.600;5.718;2023-04-01T09:43:02;13.27;;;6.30;;
48052;SDS011;33824;51.600;5.718;2023-04-01T09:59:42;11.10;;;5.53;;
48052;SDS011;33824;51.600;5.718;2023-04-01T10:36:30;11.80;;;4.65;;
48052;SDS011;33824;51.600;5.718;2023-04-01T10:39:20;8.07;;;4.75;;
48052;SDS011;33824;51.600;5.718;2023-04-01T10:45:17;9.10;;;4.15;;
48052;SDS011;33824;51.600;5.718;2023-04-01T10:59:02;21.85;;;4.10;;
48052;SDS011;33824;51.600;5.718;2023-04-01T11:16:34;7.15;;;2.60;;
48052;SDS011;33824;51.600;5.718;2023-04-01T11:27:50;5.28;;;3.00;;
48052;SDS011;33824;51.600;5.718;2023-04-01T11:30:51;6.63;;;3.00;;
48052;SDS011;33824;51.600;5.718;2023-04-01T11:39:00;8.50;;;4.20;;
48052;SDS011;33824;51.600;5.718;2023-04-01T11:44:20;8.40;;;4.50;;
48052;SDS011;33824;51.600;5.718;2023-04-01T11:49:56;6.57;;;4.40;;
48052;SDS011;33824;51.600;5.718;2023-04-01T12:01:03;9.73;;;6.38;;
48052;SDS011;33824;51.600;5.718;2023-04-01T12:14:36;10.68;;;6.30;;
48052;SDS011;33824;51.600;5.718;2023-04-01T12:17:25;11.40;;;5.95;;
48052;SDS011;33824;51.600;5.718;2023-04-01T12:19:59;10.68;;;5.57;;
48052;SDS011;33824;51.600;5.718;2023-04-01T12:28:52;8.98;;;5.05;;
48052;SDS011;33824;51.600;5.718;2023-04-01T12:36:39;7.88;;;3.95;;
48052;SDS011;33824;51.600;5.718;2023-04-01T12:42:16;6.30;;;3.42;;
48052;SDS011;33824;51.600;5.718;2023-04-01T12:45:27;3.67;;;2.15;;
48052;SDS011;33824;51.600;5.718;2023-04-01T12:56:09;4.13;;;2.67;;
48052;SDS011;33824;51.600;5.718;2023-04-01T12:59:26;3.47;;;2.03;;
48052;SDS011;33824;51.600;5.718;2023-04-01T13:01:45;6.68;;;2.65;;
48052;SDS011;33824;51.600;5.718;2023-04-01T13:10:25;4.07;;;2.38;;
48052;SDS011;33824;51.600;5.718;2023-04-01T13:21:38;8.80;;;3.67;;
48052;SDS011;33824;51.600;5.718;2023-04-01T13:27:33;4.00;;;2.50;;
48052;SDS011;33824;51.600;5.718;2023-04-01T13:30:21;3.58;;;2.53;;
48052;SDS011;33824;51.600;5.718;2023-04-01T13:35:46;4.68;;;2.67;;
48052;SDS011;33824;51.600;5.718;2023-04-01T13:41:30;4.78;;;1.90;;
48052;SDS011;33824;51.600;5.718;2023-04-01T13:44:17;2.03;;;1.60;;
48052;SDS011;33824;51.600;5.718;2023-04-01T13:58:20;1.95;;;1.50;;
48052;SDS011;33824;51.600;5.718;2023-04-01T14:01:00;3.58;;;2.00;;
48052;SDS011;33824;51.600;5.718;2023-04-01T14:14:53;6.07;;;2.40;;
48052;SDS011;33824;51.600;5.718;2023-04-01T14:23:36;5.85;;;3.42;;
48052;SDS011;33824;51.600;5.718;2023-04-01T14:33:46;5.43;;;3.05;;
48052;SDS011;33824;51.600;5.718;2023-04-01T14:41:53;5.97;;;3.20;;
48052;SDS011;33824;51.600;5.718;2023-04-01T14:47:47;6.93;;;3.33;;
48052;SDS011;33824;51.600;5.718;2023-04-01T14:50:23;5.78;;;3.25;;
48052;SDS011;33824;51.600;5.718;2023-04-01T14:53:24;9.50;;;3.13;;
48052;SDS011;33824;51.600;5.718;2023-04-01T14:55:52;5.27;;;3.17;;
48052;SDS011;33824;51.600;5.718;2023-04-01T14:58:22;4.85;;;3.50;;
48052;SDS011;33824;51.600;5.718;2023-04-01T15:01:13;6.57;;;3.65;;
48052;SDS011;33824;51.600;5.718;2023-04-01T15:12:33;7.80;;;3.28;;
48052;SDS011;33824;51.600;5.718;2023-04-01T15:15:57;5.85;;;3.03;;
48052;SDS011;33824;51.600;5.718;2023-04-01T15:21:04;4.75;;;2.85;;
48052;SDS011;33824;51.600;5.718;2023-04-01T15:23:46;7.53;;;3.22;;
48052;SDS011;33824;51.600;5.718;2023-04-01T15:26:21;5.30;;;3.17;;
48052;SDS011;33824;51.600;5.718;2023-04-01T15:29:19;8.60;;;3.03;;
48052;SDS011;33824;51.600;5.718;2023-04-01T15:34:28;5.18;;;3.10;;
48052;SDS011;33824;51.600;5.718;2023-04-01T15:40:14;5.93;;;3.58;;
48052;SDS011;33824;51.600;5.718;2023-04-01T15:42:45;8.30;;;3.85;;
48052;SDS011;33824;51.600;5.718;2023-04-01T15:59:43;8.90;;;4.40;;
48052;SDS011;33824;51.600;5.718;2023-04-01T16:02:23;10.15;;;4.10;;
48052;SDS011;33824;51.600;5.718;2023-04-01T16:05:04;6.85;;;3.67;;
48052;SDS011;33824;51.600;5.718;2023-04-01T16:10:51;7.93;;;3.63;;
48052;SDS011;33824;51.600;5.718;2023-04-01T16:16:47;6.63;;;3.83;;
48052;SDS011;33824;51.600;5.718;2023-04-01T16:19:18;6.05;;;3.45;;
48052;SDS011;33824;51.600;5.718;2023-04-01T16:21:51;9.30;;;4.50;;
48052;SDS011;33824;51.600;5.718;2023-04-01T16:24:24;7.43;;;3.97;;
48052;SDS011;33824;51.600;5.718;2023-04-01T16:27:10;9.70;;;3.90;;
48052;SDS011;33824;51.600;5.718;2023-04-01T16:37:49;8.63;;;4.10;;
48052;SDS011;33824;51.600;5.718;2023-04-01T16:40:37;9.35;;;3.75;;
48052;SDS011;33824;51.600;5.718;2023-04-01T16:45:36;7.90;;;3.90;;
48052;SDS011;33824;51.600;5.718;2023-04-01T16:48:13;12.95;;;3.90;;
48052;SDS011;33824;51.600;5.718;2023-04-01T16:51:00;7.15;;;3.85;;
48052;SDS011;33824;51.600;5.718;2023-04-01T16:56:10;7.72;;;3.88;;
48052;SDS011;33824;51.600;5.718;2023-04-01T17:01:49;7.75;;;3.45;;
48052;SDS011;33824;51.600;5.718;2023-04-01T17:04:23;10.40;;;4.25;;
48052;SDS011;33824;51.600;5.718;2023-04-01T17:07:01;6.57;;;3.55;;
48052;SDS011;33824;51.600;5.718;2023-04-01T17:09:59;7.85;;;4.30;;
48052;SDS011;33824;51.600;5.718;2023-04-01T17:15:26;5.63;;;3.20;;
48052;SDS011;33824;51.600;5.718;2023-04-01T17:21:02;6.57;;;2.97;;
48052;SDS011;33824;51.600;5.718;2023-04-01T17:26:28;4.13;;;2.55;;
48052;SDS011;33824;51.600;5.718;2023-04-01T17:32:13;6.75;;;1.80;;
48052;SDS011;33824;51.600;5.718;2023-04-01T17:37:37;3.63;;;2.28;;
48052;SDS011;33824;51.600;5.718;2023-04-01T17:56:39;4.95;;;1.55;;
48052;SDS011;33824;51.600;5.718;2023-04-01T17:59:29;2.33;;;1.60;;
48052;SDS011;33824;51.600;5.718;2023-04-01T18:10:50;3.45;;;2.15;;
48052;SDS011;33824;51.600;5.718;2023-04-01T18:13:45;2.35;;;1.83;;
48052;SDS011;33824;51.600;5.718;2023-04-01T18:16:45;6.28;;;1.80;;
48052;SDS011;33824;51.600;5.718;2023-04-01T18:24:41;4.13;;;1.90;;
48052;SDS011;33824;51.600;5.718;2023-04-01T18:28:14;2.60;;;1.92;;
48052;SDS011;33824;51.600;5.718;2023-04-01T18:30:20;4.53;;;1.90;;
48052;SDS011;33824;51.600;5.718;2023-04-01T18:32:59;1.83;;;1.42;;
48052;SDS011;33824;51.600;5.718;2023-04-01T18:35:34;3.60;;;1.92;;
48052;SDS011;33824;51.600;5.718;2023-04-01T18:38:16;3.63;;;2.50;;
48052;SDS011;33824;51.600;5.718;2023-04-01T18:40:58;2.95;;;2.28;;
48052;SDS011;33824;51.600;5.718;2023-04-01T18:43:48;3.13;;;2.20;;
48052;SDS011;33824;51.600;5.718;2023-04-01T18:57:55;3.75;;;2.63;;
48052;SDS011;33824;51.600;5.718;2023-04-01T19:00:52;3.03;;;2.28;;
48052;SDS011;33824;51.600;5.718;2023-04-01T19:15:25;4.18;;;3.17;;
48052;SDS011;33824;51.600;5.718;2023-04-01T19:21:01;3.70;;;3.03;;
48052;SDS011;33824;51.600;5.718;2023-04-01T19:26:11;4.32;;;3.28;;
48052;SDS011;33824;51.600;5.718;2023-04-01T19:31:56;5.30;;;2.90;;
48052;SDS011;33824;51.600;5.718;2023-04-01T19:37:28;4.47;;;3.50;;
48052;SDS011;33824;51.600;5.718;2023-04-01T19:51:11;4.55;;;3.45;;
48052;SDS011;33824;51.600;5.718;2023-04-01T19:56:17;3.65;;;2.83;;
48052;SDS011;33824;51.600;5.718;2023-04-01T19:58:58;3.85;;;3.38;;
48052;SDS011;33824;51.600;5.718;2023-04-01T20:04:07;5.60;;;3.58;;
48052;SDS011;33824;51.600;5.718;2023-04-01T20:06:43;3.88;;;2.67;;
48052;SDS011;33824;51.600;5.718;2023-04-01T20:09:35;5.15;;;3.33;;
48052;SDS011;33824;51.600;5.718;2023-04-01T20:12:17;3.58;;;3.15;;
48052;SDS011;33824;51.600;5.718;2023-04-01T20:14:55;5.03;;;3.28;;
48052;SDS011;33824;51.600;5.718;2023-04-01T20:20:03;4.90;;;3.55;;
48052;SDS011;33824;51.600;5.718;2023-04-01T20:27:41;5.97;;;2.60;;
48052;SDS011;33824;51.600;5.718;2023-04-01T20:33:22;5.93;;;3.53;;
48052;SDS011;33824;51.600;5.718;2023-04-01T20:39:04;5.03;;;3.30;;
48052;SDS011;33824;51.600;5.718;2023-04-01T20:44:35;4.00;;;3.13;;
48052;SDS011;33824;51.600;5.718;2023-04-01T20:53:05;4.90;;;3.67;;
48052;SDS011;33824;51.600;5.718;2023-04-01T20:55:48;5.28;;;3.42;;
48052;SDS011;33824;51.600;5.718;2023-04-01T20:59:21;3.58;;;3.25;;
48052;SDS011;33824;51.600;5.718;2023-04-01T21:01:40;3.47;;;2.97;;
48052;SDS011;33824;51.600;5.718;2023-04-01T21:04:30;3.40;;;2.95;;
48052;SDS011;33824;51.600;5.718;2023-04-01T21:07:15;4.05;;;3.20;;
48052;SDS011;33824;51.600;5.718;2023-04-01T21:10:05;3.47;;;3.17;;
48052;SDS011;33824;51.600;5.718;2023-04-01T21:21:05;4.68;;;3.85;;
48052;SDS011;33824;51.600;5.718;2023-04-01T21:24:02;5.97;;;3.40;;
48052;SDS011;33824;51.600;5.718;2023-04-01T21:35:00;4.30;;;3.60;;
48052;SDS011;33824;51.600;5.718;2023-04-01T21:43:34;6.53;;;3.97;;
48052;SDS011;33824;51.600;5.718;2023-04-01T21:55:05;4.35;;;3.17;;
48052;SDS011;33824;51.600;5.718;2023-04-01T21:58:08;3.13;;;2.50;;
48052;SDS011;33824;51.600;5.718;2023-04-01T22:04:11;4.95;;;3.30;;
48052;SDS011;33824;51.600;5.718;2023-04-01T22:07:01;4.70;;;3.83;;
48052;SDS011;33824;51.600;5.718;2023-04-01T22:28:29;3.13;;;2.80;;
48052;SDS011;33824;51.600;5.718;2023-04-01T22:31:00;3.83;;;2.88;;
48052;SDS011;33824;51.600;5.718;2023-04-01T22:36:06;4.03;;;3.00;;
48052;SDS011;33824;51.600;5.718;2023-04-01T22:41:58;4.60;;;3.70;;
48052;SDS011;33824;51.600;5.718;2023-04-01T22:50:05;4.88;;;2.92;;
48052;SDS011;33824;51.600;5.718;2023-04-01T22:52:42;2.70;;;2.45;;
48052;SDS011;33824;51.600;5.718;2023-04-01T22:57:55;3.83;;;3.30;;
48052;SDS011;33824;51.600;5.718;2023-04-01T23:03:19;5.50;;;3.30;;
48052;SDS011;33824;51.600;5.718;2023-04-01T23:05:51;6.82;;;3.75;;
48052;SDS011;33824;51.600;5.718;2023-04-01T23:10:54;4.03;;;3.63;;
48052;SDS011;33824;51.600;5.718;2023-04-01T23:16:26;6.00;;;4.28;;
48052;SDS011;33824;51.600;5.718;2023-04-01T23:22:06;6.27;;;3.30;;
48052;SDS011;33824;51.600;5.718;2023-04-01T23:24:45;5.00;;;2.92;;
48052;SDS011;33824;51.600;5.718;2023-04-01T23:29:57;4.85;;;3.25;;
48052;SDS011;33824;51.600;5.718;2023-04-01T23:32:22;3.33;;;2.85;;
48052;SDS011;33824;51.600;5.718;2023-04-01T23:34:52;3.75;;;2.92;;
48052;SDS011;33824;51.600;5.718;2023-04-01T23:37:20;5.85;;;2.80;;
48052;SDS011;33824;51.600;5.718;2023-04-01T23:39:48;4.63;;;3.67;;
48052;SDS011;33824;51.600;5.718;2023-04-01T23:42:18;4.43;;;3.20;;
48052;SDS011;33824;51.600;5.718;2023-04-01T23:44:51;2.95;;;2.33;;
48052;SDS011;33824;51.600;5.718;2023-04-01T23:47:24;6.05;;;2.90;;
48052;SDS011;33824;51.600;5.718;2023-04-01T23:50:04;3.35;;;2.15;;
48052;SDS011;33824;51.600;5.718;2023-04-01T23:52:36;4.82;;;3.05;;
48052;SDS011;33824;51.600;5.718;2023-04-01T23:57:35;3.03;;;2.28;;
